createdAt,value
2022-09-17T00:01:24.178Z,84.24
2022-09-17T00:03:52.783Z,83.87
2022-09-17T00:06:22.243Z,84.32
2022-09-17T00:08:48.955Z,85.49
2022-09-17T00:11:24.804Z,85.02
2022-09-17T00:13:53.149Z,85.19
2022-09-17T00:16:26.595Z,85.21
2022-09-17T00:18:53.253Z,85.38
2022-09-17T00:21:20.449Z,85.85
2022-09-17T00:23:47.343Z,86.40
2022-09-17T00:26:16.373Z,86.88
2022-09-17T00:28:45.460Z,87.53
2022-09-17T00:31:12.231Z,88.90
2022-09-17T00:33:39.049Z,88.85
2022-09-17T00:36:06.343Z,89.49
2022-09-17T00:38:33.997Z,90.60
2022-09-17T00:41:02.028Z,91.31
2022-09-17T00:43:37.098Z,90.63
2022-09-17T00:46:10.895Z,90.56
2022-09-17T00:48:37.637Z,90.73
2022-09-17T00:51:06.700Z,91.69
2022-09-17T00:53:33.273Z,92.29
2022-09-17T00:56:23.803Z,92.98
2022-09-17T00:58:52.785Z,93.56
2022-09-17T01:01:19.707Z,93.74
2022-09-17T01:03:46.701Z,94.67
2022-09-17T01:06:34.575Z,95.44
2022-09-17T01:09:36.423Z,95.26
2022-09-17T01:12:15.174Z,95.45
2022-09-17T01:15:03.510Z,96.05
2022-09-17T01:17:54.735Z,95.08
2022-09-17T01:20:30.478Z,95.81
2022-09-17T01:23:18.828Z,95.61
2022-09-17T01:26:13.524Z,95.72
2022-09-17T01:28:55.262Z,95.61
2022-09-17T01:31:43.187Z,96.98
2022-09-17T01:34:28.702Z,97.68
2022-09-17T01:37:06.957Z,97.07
2022-09-17T01:40:05.735Z,98.47
2022-09-17T01:42:51.179Z,99.25
2022-09-17T01:45:19.972Z,100.00
2022-09-17T01:47:55.762Z,100.00
2022-09-17T01:50:28.008Z,100.00
2022-09-17T01:52:56.822Z,100.00
2022-09-17T01:55:29.950Z,100.00
2022-09-17T01:58:03.957Z,100.00
2022-09-17T02:00:30.727Z,100.00
2022-09-17T02:03:02.821Z,100.00
2022-09-17T02:05:38.483Z,100.00
2022-09-17T02:08:25.529Z,100.00
2022-09-17T02:11:04.714Z,100.00
2022-09-17T02:13:38.362Z,100.00
2022-09-17T02:16:17.012Z,100.00
2022-09-17T02:18:53.623Z,100.00
2022-09-17T02:21:53.217Z,100.00
2022-09-17T02:24:22.757Z,100.00
2022-09-17T02:26:58.132Z,100.00
2022-09-17T02:29:31.785Z,100.00
2022-09-17T02:31:58.449Z,100.00
2022-09-17T02:34:27.777Z,100.00
2022-09-17T02:36:55.568Z,100.00
2022-09-17T02:39:22.424Z,100.00
2022-09-17T02:41:51.880Z,100.00
2022-09-17T02:44:24.920Z,100.00
2022-09-17T02:47:29.011Z,100.00
2022-09-17T02:49:55.543Z,100.00
2022-09-17T02:52:34.504Z,100.00
2022-09-17T02:55:12.499Z,100.00
2022-09-17T02:57:59.304Z,100.00
2022-09-17T03:00:28.432Z,100.00
2022-09-17T03:03:04.359Z,100.00
2022-09-17T03:05:32.033Z,100.00
2022-09-17T03:08:00.321Z,100.00
2022-09-17T03:10:33.547Z,100.00
2022-09-17T03:13:00.126Z,100.00
2022-09-17T03:15:26.968Z,100.00
2022-09-17T03:17:53.722Z,100.00
2022-09-17T03:20:20.413Z,100.00
2022-09-17T03:22:47.300Z,100.00
2022-09-17T03:25:14.127Z,100.00
2022-09-17T03:27:41.052Z,100.00
2022-09-17T03:30:09.748Z,100.00
2022-09-17T03:32:36.300Z,100.00
2022-09-17T03:35:02.938Z,100.00
2022-09-17T03:37:32.863Z,100.00
2022-09-17T03:40:00.008Z,100.00
2022-09-17T03:42:26.618Z,100.00
2022-09-17T03:44:53.238Z,100.00
2022-09-17T03:47:19.773Z,100.00
2022-09-17T03:49:46.381Z,100.00
2022-09-17T03:52:12.958Z,100.00
2022-09-17T03:54:39.829Z,100.00
2022-09-17T03:57:06.469Z,100.00
2022-09-17T03:59:33.133Z,100.00
2022-09-17T04:01:59.873Z,100.00
2022-09-17T04:04:26.557Z,100.00
2022-09-17T04:06:53.324Z,100.00
2022-09-17T04:09:19.983Z,100.00
2022-09-17T04:11:46.613Z,100.00
2022-09-17T04:14:13.218Z,100.00
2022-09-17T04:16:39.774Z,100.00
2022-09-17T04:19:06.482Z,100.00
2022-09-17T04:21:33.054Z,100.00
2022-09-17T04:24:00.067Z,100.00
2022-09-17T04:26:26.636Z,100.00
2022-09-17T04:28:53.238Z,100.00
2022-09-17T04:31:19.853Z,100.00
2022-09-17T04:33:46.454Z,100.00
2022-09-17T04:36:13.016Z,100.00
2022-09-17T04:38:39.601Z,100.00
2022-09-17T04:41:09.273Z,100.00
2022-09-17T04:43:35.879Z,100.00
2022-09-17T04:46:02.609Z,100.00
2022-09-17T04:48:29.170Z,100.00
2022-09-17T04:50:55.794Z,100.00
2022-09-17T04:53:22.386Z,100.00
2022-09-17T04:55:48.962Z,100.00
2022-09-17T04:58:15.523Z,100.00
2022-09-17T05:00:42.617Z,100.00
2022-09-17T05:03:09.288Z,100.00
2022-09-17T05:05:35.949Z,100.00
2022-09-17T05:08:02.719Z,100.00
2022-09-17T05:10:29.414Z,100.00
2022-09-17T05:12:56.999Z,100.00
2022-09-17T05:15:25.342Z,100.00
2022-09-17T05:17:52.193Z,100.00
2022-09-17T05:20:19.275Z,100.00
2022-09-17T05:22:48.441Z,100.00
2022-09-17T05:25:17.264Z,100.00
2022-09-17T05:27:44.132Z,100.00
2022-09-17T05:30:12.006Z,100.00
2022-09-17T05:32:39.202Z,100.00
2022-09-17T05:35:06.594Z,100.00
2022-09-17T05:37:33.311Z,100.00
2022-09-17T05:40:00.228Z,100.00
2022-09-17T05:42:26.871Z,100.00
2022-09-17T05:44:53.410Z,100.00
2022-09-17T05:47:19.992Z,100.00
2022-09-17T05:49:46.545Z,100.00
2022-09-17T05:52:13.201Z,100.00
2022-09-17T05:54:39.868Z,100.00
2022-09-17T05:57:06.547Z,100.00
2022-09-17T05:59:33.451Z,100.00
2022-09-17T06:02:00.160Z,100.00
2022-09-17T06:04:27.710Z,100.00
2022-09-17T06:06:56.198Z,100.00
2022-09-17T06:09:22.757Z,100.00
2022-09-17T06:11:49.402Z,100.00
2022-09-17T06:14:16.427Z,100.00
2022-09-17T06:16:43.120Z,100.00
2022-09-17T06:19:09.734Z,100.00
2022-09-17T06:21:36.361Z,100.00
2022-09-17T06:24:03.113Z,100.00
2022-09-17T06:26:29.854Z,100.00
2022-09-17T06:28:56.424Z,100.00
2022-09-17T06:31:23.063Z,100.00
2022-09-17T06:33:51.187Z,100.00
2022-09-17T06:36:17.833Z,100.00
2022-09-17T06:38:45.621Z,100.00
2022-09-17T06:41:13.430Z,100.00
2022-09-17T06:43:40.122Z,100.00
2022-09-17T06:46:09.106Z,100.00
2022-09-17T06:48:37.452Z,99.95
2022-09-17T06:51:07.109Z,99.14
2022-09-17T06:53:34.446Z,98.32
2022-09-17T06:56:06.296Z,98.07
2022-09-17T06:58:34.208Z,97.99
2022-09-17T07:01:01.903Z,96.76
2022-09-17T07:03:30.182Z,96.50
2022-09-17T07:05:57.816Z,97.16
2022-09-17T07:08:26.108Z,98.42
2022-09-17T07:10:56.535Z,97.54
2022-09-17T07:13:23.851Z,97.97
2022-09-17T07:15:58.277Z,97.62
2022-09-17T07:18:25.825Z,97.01
2022-09-17T07:20:57.282Z,97.21
2022-09-17T07:23:25.621Z,97.75
2022-09-17T07:25:53.573Z,97.85
2022-09-17T07:28:21.017Z,96.85
2022-09-17T07:30:47.655Z,94.71
2022-09-17T07:33:16.410Z,95.02
2022-09-17T07:35:43.085Z,94.32
2022-09-17T07:38:09.679Z,93.23
2022-09-17T07:40:36.274Z,92.30
2022-09-17T07:43:02.876Z,92.67
2022-09-17T07:45:29.682Z,90.32
2022-09-17T07:47:56.249Z,92.10
2022-09-17T07:50:22.891Z,91.19
2022-09-17T07:52:49.517Z,90.21
2022-09-17T07:55:16.708Z,90.18
2022-09-17T07:57:43.285Z,88.88
2022-09-17T08:00:10.443Z,88.92
2022-09-17T08:02:37.179Z,88.52
2022-09-17T08:05:04.125Z,88.63
2022-09-17T08:07:30.721Z,88.82
2022-09-17T08:09:57.304Z,88.26
2022-09-17T08:12:23.984Z,88.08
2022-09-17T08:14:50.521Z,86.70
2022-09-17T08:17:17.462Z,85.80
2022-09-17T08:19:44.057Z,85.89
2022-09-17T08:22:10.618Z,84.16
2022-09-17T08:24:37.205Z,83.93
2022-09-17T08:27:03.952Z,83.46
2022-09-17T08:29:34.986Z,82.64
2022-09-17T08:32:02.036Z,82.58
2022-09-17T08:34:28.592Z,83.61
2022-09-17T08:36:55.126Z,82.60
2022-09-17T08:39:21.692Z,83.70
2022-09-17T08:42:03.109Z,80.51
2022-09-17T08:44:41.206Z,80.03
2022-09-17T08:47:37.882Z,78.34
2022-09-17T08:50:07.759Z,79.98
2022-09-17T08:52:50.018Z,81.14
2022-09-17T08:55:34.963Z,78.86
2022-09-17T08:58:39.921Z,78.02
2022-09-17T09:01:12.629Z,78.98
2022-09-17T09:03:54.295Z,78.70
2022-09-17T09:06:27.234Z,78.27
2022-09-17T09:09:03.892Z,76.61
2022-09-17T09:11:31.536Z,77.02
2022-09-17T09:14:50.697Z,75.47
2022-09-17T09:17:21.558Z,75.46
2022-09-17T09:19:49.914Z,74.34
2022-09-17T09:22:45.451Z,72.09
2022-09-17T09:25:29.482Z,73.52
2022-09-17T09:28:26.475Z,73.28
2022-09-17T09:31:30.901Z,73.43
2022-09-17T09:33:58.498Z,74.40
2022-09-17T09:36:29.814Z,74.20
2022-09-17T09:39:04.489Z,74.06
2022-09-17T09:41:40.638Z,71.84
2022-09-17T09:44:13.269Z,70.98
2022-09-17T09:46:49.228Z,72.54
2022-09-17T09:49:36.453Z,71.40
2022-09-17T09:52:10.869Z,71.79
2022-09-17T09:54:55.945Z,72.58
2022-09-17T09:57:47.565Z,71.48
2022-09-17T10:00:36.791Z,72.50
2022-09-17T10:03:23.553Z,73.90
2022-09-17T10:06:10.993Z,77.50
2022-09-17T10:08:40.271Z,77.75
2022-09-17T10:11:18.083Z,77.36
2022-09-17T10:13:44.645Z,76.73
2022-09-17T10:16:20.086Z,77.72
2022-09-17T10:18:48.613Z,75.41
2022-09-17T10:21:23.380Z,75.38
2022-09-17T10:23:51.048Z,75.61
2022-09-17T10:26:24.100Z,75.41
2022-09-17T10:28:53.769Z,75.33
2022-09-17T10:31:20.900Z,76.49
2022-09-17T10:33:53.297Z,78.00
2022-09-17T10:36:42.554Z,79.32
2022-09-17T10:39:44.577Z,80.80
2022-09-17T10:42:12.376Z,81.89
2022-09-17T10:44:50.537Z,80.78
2022-09-17T10:47:31.022Z,80.92
2022-09-17T10:50:31.080Z,80.46
2022-09-17T10:53:01.681Z,79.95
2022-09-17T10:55:34.828Z,79.47
2022-09-17T10:58:07.590Z,76.35
2022-09-17T11:00:34.246Z,75.32
2022-09-17T11:03:32.999Z,71.84
2022-09-17T11:05:59.714Z,71.27
2022-09-17T11:08:32.536Z,68.68
2022-09-17T11:11:09.545Z,66.20
2022-09-17T11:14:01.527Z,64.79
2022-09-17T11:16:34.315Z,64.30
2022-09-17T11:19:10.418Z,65.41
2022-09-17T11:21:54.921Z,66.73
2022-09-17T11:24:36.496Z,68.00
2022-09-17T11:27:15.496Z,65.62
2022-09-17T11:30:05.147Z,65.32
2022-09-17T11:32:37.366Z,65.15
2022-09-17T11:35:12.065Z,63.31
2022-09-17T11:37:49.143Z,64.39
2022-09-17T11:40:48.073Z,65.13
2022-09-17T11:43:17.857Z,64.21
2022-09-17T11:46:20.150Z,59.57
2022-09-17T11:49:05.302Z,60.11
2022-09-17T11:51:39.814Z,60.97
2022-09-17T11:54:08.957Z,59.48
2022-09-17T11:56:42.942Z,59.97
2022-09-17T11:59:32.440Z,59.96
2022-09-17T12:02:05.579Z,59.33
2022-09-17T12:04:57.024Z,58.26
2022-09-17T12:08:11.286Z,61.41
2022-09-17T12:10:49.690Z,56.67
2022-09-17T12:13:48.583Z,58.08
2022-09-17T12:16:30.449Z,58.40
2022-09-17T12:19:01.141Z,59.90
2022-09-17T12:21:38.040Z,62.03
2022-09-17T12:24:26.879Z,61.25
2022-09-17T12:27:21.776Z,63.00
2022-09-17T12:30:19.264Z,63.31
2022-09-17T12:33:09.941Z,65.75
2022-09-17T12:36:04.034Z,68.06
2022-09-17T12:38:35.269Z,71.70
2022-09-17T12:41:10.927Z,71.01
2022-09-17T12:43:49.545Z,71.96
2022-09-17T12:46:21.888Z,69.66
2022-09-17T12:49:10.132Z,70.34
2022-09-17T12:52:03.528Z,64.59
2022-09-17T12:55:07.584Z,67.41
2022-09-17T12:57:43.392Z,68.09
2022-09-17T13:00:15.021Z,68.20
2022-09-17T13:02:44.053Z,65.88
2022-09-17T13:05:19.559Z,65.13
2022-09-17T13:07:55.161Z,64.82
2022-09-17T13:10:55.897Z,63.32
2022-09-17T13:13:43.865Z,64.83
2022-09-17T13:16:37.321Z,65.50
2022-09-17T13:19:24.815Z,63.83
2022-09-17T13:22:07.114Z,62.64
2022-09-17T13:24:34.986Z,63.09
2022-09-17T13:27:04.156Z,62.99
2022-09-17T13:29:46.152Z,59.46
2022-09-17T13:32:38.935Z,60.23
2022-09-17T13:35:11.541Z,57.57
2022-09-17T13:37:58.690Z,58.14
2022-09-17T13:40:32.581Z,57.64
2022-09-17T13:43:10.518Z,57.75
2022-09-17T13:45:59.915Z,59.21
2022-09-17T13:48:28.646Z,57.90
2022-09-17T13:50:55.590Z,59.08
2022-09-17T13:53:26.973Z,60.17
2022-09-17T13:56:01.961Z,60.59
2022-09-17T13:58:33.993Z,62.84
2022-09-17T14:01:13.039Z,65.97
2022-09-17T14:03:44.612Z,68.85
2022-09-17T14:06:11.477Z,68.67
2022-09-17T14:08:44.207Z,69.73
2022-09-17T14:11:23.186Z,71.18
2022-09-17T14:13:50.584Z,73.84
2022-09-17T14:16:33.812Z,74.78
2022-09-17T14:19:15.426Z,75.02
2022-09-17T14:22:06.495Z,72.65
2022-09-17T14:24:37.703Z,71.48
2022-09-17T14:27:42.617Z,74.59
2022-09-17T14:30:12.528Z,76.19
2022-09-17T14:33:01.279Z,77.76
2022-09-17T14:35:48.267Z,75.43
2022-09-17T14:38:44.898Z,77.50
2022-09-17T14:41:11.495Z,76.58
2022-09-17T14:43:41.485Z,75.90
2022-09-17T14:46:13.796Z,76.94
2022-09-17T14:48:40.487Z,76.65
2022-09-17T14:51:18.958Z,75.71
2022-09-17T14:53:47.031Z,76.35
2022-09-17T14:56:19.757Z,75.78
2022-09-17T14:58:53.130Z,77.08
2022-09-17T15:01:31.114Z,77.02
2022-09-17T15:04:12.704Z,78.09
2022-09-17T15:06:40.696Z,76.62
2022-09-17T15:09:15.895Z,76.64
2022-09-17T15:11:45.262Z,76.99
2022-09-17T15:14:22.226Z,77.55
2022-09-17T15:16:51.317Z,77.27
2022-09-17T15:19:28.282Z,72.35
2022-09-17T15:21:57.399Z,70.86
2022-09-17T15:24:44.083Z,71.02
2022-09-17T15:27:45.364Z,70.55
2022-09-17T15:30:20.234Z,67.85
2022-09-17T15:32:54.088Z,67.31
2022-09-17T15:35:22.521Z,67.00
2022-09-17T15:38:18.583Z,65.01
2022-09-17T15:40:41.202Z,67.01
2022-09-17T15:43:29.548Z,67.24
2022-09-17T15:45:58.295Z,65.98
2022-09-17T15:48:27.565Z,65.41
2022-09-17T15:50:58.882Z,65.99
2022-09-17T15:53:31.092Z,66.00
2022-09-17T15:56:13.216Z,67.01
2022-09-17T15:58:42.621Z,67.32
2022-09-17T16:01:18.682Z,68.16
2022-09-17T16:03:45.421Z,69.68
2022-09-17T16:06:17.756Z,70.08
2022-09-17T16:08:47.405Z,73.05
2022-09-17T16:11:14.685Z,76.44
2022-09-17T16:13:41.564Z,77.34
2022-09-17T16:16:15.865Z,78.73
2022-09-17T16:18:42.556Z,79.45
2022-09-17T16:21:11.219Z,81.43
2022-09-17T16:23:37.966Z,82.81
2022-09-17T16:26:06.431Z,82.15
2022-09-17T16:28:34.395Z,83.64
2022-09-17T16:31:01.326Z,84.48
2022-09-17T16:33:28.354Z,83.92
2022-09-17T16:35:59.271Z,84.85
2022-09-17T16:38:26.547Z,84.55
2022-09-17T16:40:53.113Z,84.89
2022-09-17T16:43:19.771Z,84.16
2022-09-17T16:46:03.789Z,83.75
2022-09-17T16:48:31.294Z,85.13
2022-09-17T16:50:57.871Z,85.12
2022-09-17T16:53:24.820Z,85.17
2022-09-17T16:55:51.388Z,85.51
2022-09-17T16:58:18.010Z,86.71
2022-09-17T17:00:44.945Z,85.33
2022-09-17T17:03:15.421Z,85.42
2022-09-17T17:05:43.298Z,85.76
2022-09-17T17:08:10.553Z,86.17
2022-09-17T17:10:40.334Z,87.15
2022-09-17T17:13:06.986Z,87.23
2022-09-17T17:15:34.010Z,87.46
2022-09-17T17:18:00.721Z,86.83
2022-09-17T17:20:27.385Z,86.79
2022-09-17T17:22:55.350Z,87.49
2022-09-17T17:25:23.733Z,86.86
2022-09-17T17:27:50.477Z,86.40
2022-09-17T17:30:17.688Z,86.31
2022-09-17T17:32:48.942Z,86.41
2022-09-17T17:35:15.720Z,86.49
2022-09-17T17:37:42.879Z,86.26
2022-09-17T17:40:10.408Z,86.39
2022-09-17T17:42:39.532Z,86.29
2022-09-17T17:45:07.726Z,86.31
2022-09-17T17:47:34.607Z,86.55
2022-09-17T17:50:01.250Z,86.60
2022-09-17T17:52:28.095Z,86.12
2022-09-17T17:54:54.997Z,86.19
2022-09-17T17:57:21.680Z,86.62
2022-09-17T17:59:48.187Z,86.83
2022-09-17T18:02:14.879Z,86.99
2022-09-17T18:04:41.555Z,87.48
2022-09-17T18:07:08.182Z,87.84
2022-09-17T18:09:35.371Z,87.45
2022-09-17T18:12:02.219Z,87.00
2022-09-17T18:14:28.799Z,86.76
2022-09-17T18:16:55.413Z,86.57
2022-09-17T18:19:22.077Z,86.41
2022-09-17T18:21:48.677Z,87.21
2022-09-17T18:24:15.324Z,86.79
2022-09-17T18:26:41.900Z,86.41
2022-09-17T18:29:09.429Z,86.35
2022-09-17T18:31:37.814Z,85.63
2022-09-17T18:34:14.250Z,85.88
2022-09-17T18:36:42.225Z,86.31
2022-09-17T18:39:56.897Z,85.98
2022-09-17T18:42:01.292Z,86.09
2022-09-17T18:44:27.907Z,85.33
2022-09-17T18:46:54.560Z,84.31
2022-09-17T18:49:21.248Z,83.89
2022-09-17T18:51:47.876Z,83.11
2022-09-17T18:54:14.937Z,83.01
2022-09-17T18:56:41.852Z,82.22
2022-09-17T18:59:09.697Z,82.13
2022-09-17T19:01:36.657Z,82.54
2022-09-17T19:04:03.937Z,82.48
2022-09-17T19:06:32.089Z,82.32
2022-09-17T19:09:03.770Z,82.47
2022-09-17T19:11:30.531Z,82.56
2022-09-17T19:13:57.590Z,81.81
2022-09-17T19:16:24.319Z,81.54
2022-09-17T19:18:51.521Z,81.06
2022-09-17T19:21:20.660Z,81.73
2022-09-17T19:23:49.905Z,82.61
2022-09-17T19:26:19.249Z,82.15
2022-09-17T19:28:46.421Z,82.92
2022-09-17T19:31:15.607Z,83.51
2022-09-17T19:33:43.024Z,84.00
2022-09-17T19:36:15.477Z,84.86
2022-09-17T19:38:42.835Z,85.02
2022-09-17T19:41:15.670Z,85.60
2022-09-17T19:43:42.455Z,85.55
2022-09-17T19:46:15.447Z,85.49
2022-09-17T19:48:47.084Z,85.19
2022-09-17T19:51:13.944Z,85.26
2022-09-17T19:53:41.669Z,84.81
2022-09-17T19:56:12.795Z,85.25
2022-09-17T19:58:39.613Z,85.38
2022-09-17T20:01:06.647Z,85.30
2022-09-17T20:03:33.397Z,85.18
2022-09-17T20:06:00.979Z,86.04
2022-09-17T20:08:28.404Z,85.63
2022-09-17T20:10:55.104Z,85.78
2022-09-17T20:13:22.730Z,86.68
2022-09-17T20:15:49.387Z,86.17
2022-09-17T20:18:21.174Z,85.60
2022-09-17T20:20:50.075Z,85.75
2022-09-17T20:23:16.705Z,85.37
2022-09-17T20:25:44.656Z,85.80
2022-09-17T20:28:11.202Z,85.68
2022-09-17T20:30:37.824Z,85.78
2022-09-17T20:33:04.380Z,85.58
2022-09-17T20:35:30.968Z,86.00
2022-09-17T20:40:44.542Z,85.67
2022-09-17T20:43:11.080Z,85.72
2022-09-17T20:45:37.798Z,85.25
2022-09-17T20:48:04.452Z,85.27
2022-09-17T20:50:31.179Z,85.13
2022-09-17T20:52:57.805Z,85.04
2022-09-17T20:55:24.480Z,85.43
2022-09-17T20:57:54.108Z,85.67
2022-09-17T21:00:21.687Z,85.79
2022-09-17T21:02:52.555Z,85.92
2022-09-17T21:05:19.226Z,85.70
2022-09-17T21:07:45.824Z,85.65
2022-09-17T21:10:13.527Z,85.94
2022-09-17T21:12:40.121Z,85.17
2022-09-17T21:15:06.964Z,85.24
2022-09-17T21:17:33.980Z,85.44
2022-09-17T21:20:00.645Z,84.97
2022-09-17T21:22:27.245Z,84.62
2022-09-17T21:24:53.768Z,84.63
2022-09-17T21:27:20.382Z,84.63
2022-09-17T21:29:46.973Z,84.89
2022-09-17T21:32:13.552Z,85.07
2022-09-17T21:34:40.339Z,84.66
2022-09-17T21:37:06.859Z,84.50
2022-09-17T21:39:35.215Z,84.51
2022-09-17T21:42:01.785Z,84.58
2022-09-17T21:44:28.413Z,84.29
2022-09-17T21:46:57.670Z,84.13
2022-09-17T21:49:25.099Z,84.48
2022-09-17T21:51:52.098Z,85.06
2022-09-17T21:54:18.908Z,85.42
2022-09-17T21:56:46.663Z,85.12
2022-09-17T21:59:15.368Z,85.10
2022-09-17T22:01:46.567Z,85.32
2022-09-17T22:04:16.123Z,85.51
2022-09-17T22:06:44.292Z,84.86
2022-09-17T22:09:17.673Z,85.06
2022-09-17T22:11:45.310Z,85.40
2022-09-17T22:14:24.197Z,85.29
2022-09-17T22:16:55.728Z,84.89
2022-09-17T22:19:23.755Z,85.25
2022-09-17T22:21:55.354Z,84.69
2022-09-17T22:24:23.251Z,84.20
2022-09-17T22:26:56.877Z,84.42
2022-09-17T22:29:25.515Z,84.27
2022-09-17T22:31:52.199Z,83.81
2022-09-17T22:34:21.452Z,83.84
2022-09-17T22:36:48.264Z,83.98
2022-09-17T22:39:15.660Z,84.20
2022-09-17T22:41:45.874Z,83.41
2022-09-17T22:44:20.030Z,83.06
2022-09-17T22:46:48.889Z,83.65
2022-09-17T22:49:16.294Z,83.74
2022-09-17T22:51:43.623Z,83.73
2022-09-17T22:54:12.109Z,83.93
2022-09-17T22:56:38.909Z,83.64
2022-09-17T22:59:05.606Z,83.62
2022-09-17T23:01:34.064Z,83.29
2022-09-17T23:04:01.281Z,83.95
2022-09-17T23:06:35.741Z,83.82
2022-09-17T23:09:02.976Z,83.42
2022-09-17T23:11:32.292Z,83.22
2022-09-17T23:14:02.270Z,84.08
2022-09-17T23:16:34.016Z,83.52
2022-09-17T23:19:00.680Z,83.19
2022-09-17T23:21:27.283Z,83.50
2022-09-17T23:23:53.810Z,83.10
2022-09-17T23:26:23.508Z,83.51
2022-09-17T23:28:50.642Z,83.08
2022-09-17T23:31:20.618Z,83.20
2022-09-17T23:33:48.449Z,83.42
2022-09-17T23:36:21.752Z,83.12
2022-09-17T23:38:49.113Z,83.35
2022-09-17T23:41:15.674Z,83.09
2022-09-17T23:43:43.113Z,83.82
2022-09-17T23:46:10.283Z,83.65
2022-09-17T23:48:37.449Z,83.34
2022-09-17T23:51:05.366Z,83.78
2022-09-17T23:53:33.681Z,83.55
2022-09-17T23:56:01.142Z,83.65
2022-09-17T23:58:31.421Z,83.66
